Altamonte Springs, FL

2:06 PM EDT on August 20, 2014 (GMT -0400)
Orlando International | Change Station
CLOSE
Current Station
Airport
Location: Orlando International,
Elevation: 105 ft
Nearby Weather Stations

Elev 105 ft 28.43 °N, 81.31 °W | Updated 13 minutes ago

Scattered Clouds
Scattered Clouds
92 °F
Feels Like 97 °F
N
4
Wind Variable Wind from Variable

Today
High -- | Low -- °F
--% Chance of Precip.
Yesterday
High -- | Low -- °F
Precip. -- in
6:57 AM 7:59 PM
Waning Crescent, 20% visible
Pressure 30.07 in
Visibility 10.0 miles
Clouds Scattered Clouds 5000 ft
Heat Index 97 °F
Dew Point 69 °F
Humidity 47%
Rainfall 0.00 in
Snow Depth Not available.
UV 12 out of 12
Pollen 7.70 out of 12
Air Quality Not available.
Flu Activity Not available.
METAR KMCO 201753Z VRB03KT 10SM SCT050 33/21 A3008 RMK AO2 SLP183 T03330206 10339 20250 58011

More Conditions Fewer Conditions

Pressure 30.07 in
Visibility 10.0 miles
Clouds Scattered Clouds 5000 ft
Heat Index 97 °F
Dew Point 69 °F
Humidity 47%
Rainfall 0.00 in
Snow Depth Not available.
UV 12 out of 12
Pollen 7.70 out of 12
Air Quality Not available.
Flu Activity Not available.
METAR KMCO 201753Z VRB03KT 10SM SCT050 33/21 A3008 RMK AO2 SLP183 T03330206 10339 20250 58011

More Conditions Fewer Conditions

Nowcast | as of 1:47 PM EDT on August 20, 2014

During the early afternoon the East Coast sea breeze was beginning to move slowly inland across the coastal counties with isolated showers and lightning storms developing inland from the Treasure Coast. Other isolated showers and lightning storms will develop over the interior into late afternoon. Temperatures are expected near 90 at the coast and in the lower to mid 90s over the interior into late afternoon. Additional details...including graphics are available online at: http://www.Srh.NOAA.Gov/mlb/blog.Php

×

10-Day Weather Forecast

Almanac

Astronomy

Aug. 20, 2014 Rise Set
Actual Time 6:57 AM EDT 7:59 PM EDT
Civil Twilight 6:32 AM EDT 8:24 PM EDT
Nautical Twilight 6:03 AM EDT 8:53 PM EDT
Astronomical Twilight 5:33 AM EDT 9:23 PM EDT
Moon 2:44 AM EDT 4:35 PM EDT
Length of Visible Light 13h 51m
Length of Day
13h 02m
Tomorrow will be 1m 32s shorter.
Waning Crescent, 20% of the Moon is Illuminated
Today
Waning Crescent
Aug 25
New
Sep 2
First Quarter
Sep 8
Full
Sep 15
Last Quarter

Community

WunderPhotos

Upload Photos

1,745,702 photos uploaded!

WunderBlogs® & News

Nearby

Snow Depth

Station Depth Elevation
No new snow has been reported.

Earthquake Activity

City Distance Mag. Time & Date
No recent earthquake activity has been reported nearby.
Minimum magnitude displayed is 2.5.

Coastal Water Temperatures

Place Temperature
No Stations Reporting

Nearby Weather Stations